createdAt,value
2023-04-24T00:00:55.949Z,4.03
2023-04-24T00:01:59.490Z,3.42
2023-04-24T00:03:01.906Z,3.17
2023-04-24T00:04:04.870Z,3.75
2023-04-24T00:05:08.686Z,3.92
2023-04-24T00:06:10.921Z,3.65
2023-04-24T00:07:14.045Z,3.85
2023-04-24T00:08:17.766Z,3.88
2023-04-24T00:09:19.947Z,3.35
2023-04-24T00:10:22.550Z,3.90
2023-04-24T00:11:24.788Z,3.63
2023-04-24T00:12:27.863Z,3.80
2023-04-24T00:13:30.132Z,3.65
2023-04-24T00:14:32.780Z,3.70
2023-04-24T00:15:35.338Z,3.60
2023-04-24T00:16:37.532Z,3.50
2023-04-24T00:17:39.922Z,3.58
2023-04-24T00:18:42.584Z,3.40
2023-04-24T00:19:45.064Z,3.28
2023-04-24T00:20:47.665Z,3.55
2023-04-24T00:21:53.546Z,3.83
2023-04-24T00:22:55.845Z,3.50
2023-04-24T00:23:59.708Z,3.95
2023-04-24T00:25:01.852Z,4.20
2023-04-24T00:26:04.091Z,3.65
2023-04-24T00:27:06.374Z,3.20
2023-04-24T00:28:08.535Z,3.50
2023-04-24T00:29:10.712Z,3.78
2023-04-24T00:30:13.106Z,3.08
2023-04-24T00:31:15.381Z,3.40
2023-04-24T00:32:19.005Z,3.33
2023-04-24T00:33:21.678Z,3.70
2023-04-24T00:34:24.072Z,3.60
2023-04-24T00:35:26.256Z,3.20
2023-04-24T00:36:28.502Z,3.50
2023-04-24T00:37:30.796Z,3.72
2023-04-24T00:38:32.951Z,3.70
2023-04-24T00:39:36.524Z,3.28
2023-04-24T00:40:39.148Z,3.60
2023-04-24T00:41:41.374Z,3.53
2023-04-24T00:42:44.924Z,3.38
2023-04-24T00:43:47.236Z,3.25
2023-04-24T00:44:49.998Z,3.47
2023-04-24T00:45:52.317Z,3.70
2023-04-24T00:46:55.934Z,3.33
2023-04-24T00:47:58.592Z,3.47
2023-04-24T00:49:01.101Z,3.13
2023-04-24T00:50:04.048Z,3.80
2023-04-24T00:51:06.423Z,3.85
2023-04-24T00:52:09.912Z,3.20
2023-04-24T00:53:12.268Z,3.60
2023-04-24T00:54:14.954Z,4.05
2023-04-24T00:55:18.894Z,3.20
2023-04-24T00:56:21.426Z,3.40
2023-04-24T00:57:24.748Z,3.22
2023-04-24T00:58:27.846Z,3.38
2023-04-24T00:59:30.126Z,3.65
2023-04-24T01:00:32.797Z,3.45
2023-04-24T01:01:35.243Z,3.20
2023-04-24T01:02:38.498Z,3.83
2023-04-24T01:03:41.852Z,3.67
2023-04-24T01:04:44.647Z,3.90
2023-04-24T01:05:47.244Z,3.47
2023-04-24T01:06:53.376Z,3.72
2023-04-24T01:07:56.192Z,3.70
2023-04-24T01:08:59.725Z,3.50
2023-04-24T01:10:02.097Z,3.55
2023-04-24T01:11:06.668Z,3.22
2023-04-24T01:12:09.121Z,3.33
2023-04-24T01:13:12.202Z,3.40
2023-04-24T01:14:14.646Z,4.15
2023-04-24T01:15:16.826Z,4.05
2023-04-24T01:16:22.089Z,3.95
2023-04-24T01:17:24.434Z,3.25
2023-04-24T01:18:27.905Z,4.03
2023-04-24T01:19:30.229Z,3.72
2023-04-24T01:20:33.454Z,3.63
2023-04-24T01:21:38.268Z,3.72
2023-04-24T01:22:42.392Z,3.55
2023-04-24T01:23:44.836Z,3.38
2023-04-24T01:24:47.028Z,3.42
2023-04-24T01:25:50.034Z,3.60
2023-04-24T01:26:52.681Z,3.17
2023-04-24T01:27:54.916Z,3.80
2023-04-24T01:28:57.620Z,3.72
2023-04-24T01:30:00.101Z,3.50
2023-04-24T01:31:02.556Z,3.60
2023-04-24T01:33:13.795Z,3.30
2023-04-24T01:34:16.454Z,4.10
2023-04-24T01:35:18.748Z,3.42
2023-04-24T01:36:23.552Z,3.08
2023-04-24T01:37:27.989Z,3.60
2023-04-24T01:38:31.972Z,3.38
2023-04-24T01:39:34.578Z,3.83
2023-04-24T01:40:37.038Z,3.75
2023-04-24T01:41:39.330Z,3.40
2023-04-24T01:42:42.868Z,3.50
2023-04-24T01:43:45.306Z,3.53
2023-04-24T01:44:48.047Z,3.35
2023-04-24T01:45:50.345Z,3.30
2023-04-24T01:46:55.129Z,3.08
2023-04-24T01:47:58.285Z,3.13
2023-04-24T01:49:01.720Z,3.35
2023-04-24T01:50:05.308Z,3.00
2023-04-24T01:51:07.609Z,2.83
2023-04-24T01:52:09.895Z,3.10
2023-04-24T01:53:12.575Z,3.17
2023-04-24T01:54:16.462Z,3.40
2023-04-24T01:55:19.009Z,3.17
2023-04-24T01:56:22.787Z,3.22
2023-04-24T01:57:25.848Z,3.30
2023-04-24T01:58:28.649Z,3.53
2023-04-24T01:59:32.058Z,3.42
2023-04-24T02:00:34.380Z,2.92
2023-04-24T02:01:37.372Z,2.80
2023-04-24T02:02:41.387Z,3.30
2023-04-24T02:03:44.054Z,3.30
2023-04-24T02:04:46.394Z,3.05
2023-04-24T02:05:48.604Z,3.45
2023-04-24T02:06:50.903Z,3.30
2023-04-24T02:07:53.110Z,2.97
2023-04-24T02:08:55.541Z,3.22
2023-04-24T02:09:59.342Z,3.42
2023-04-24T02:11:03.019Z,2.95
2023-04-24T02:12:05.404Z,2.85
2023-04-24T02:13:07.606Z,3.35
2023-04-24T02:14:09.906Z,3.20
2023-04-24T02:15:13.256Z,2.97
2023-04-24T02:16:15.533Z,3.00
2023-04-24T02:17:17.906Z,3.17
2023-04-24T02:18:20.195Z,3.13
2023-04-24T02:19:22.399Z,3.60
2023-04-24T02:20:25.003Z,3.30
2023-04-24T02:21:28.495Z,3.65
2023-04-24T02:22:30.736Z,3.20
2023-04-24T02:23:32.967Z,3.47
2023-04-24T02:24:35.263Z,2.92
2023-04-24T02:25:38.880Z,2.97
2023-04-24T02:26:41.192Z,2.95
2023-04-24T02:27:43.506Z,3.00
2023-04-24T02:28:45.729Z,3.58
2023-04-24T02:29:47.932Z,3.20
2023-04-24T02:30:50.925Z,3.28
2023-04-24T02:31:53.133Z,3.25
2023-04-24T02:32:55.360Z,3.30
2023-04-24T02:33:57.575Z,3.47
2023-04-24T02:35:00.485Z,3.08
2023-04-24T02:36:02.836Z,3.10
2023-04-24T02:37:05.118Z,4.00
2023-04-24T02:38:07.400Z,3.22
2023-04-24T02:39:09.616Z,3.50
2023-04-24T02:40:12.122Z,3.40
2023-04-24T02:41:15.841Z,2.70
2023-04-24T02:42:18.038Z,3.10
2023-04-24T02:43:20.344Z,3.00
2023-04-24T02:44:23.687Z,3.90
2023-04-24T02:45:26.036Z,3.25
2023-04-24T02:46:28.373Z,3.45
2023-04-24T02:47:30.711Z,3.35
2023-04-24T02:48:33.059Z,3.28
2023-04-24T02:49:35.273Z,3.28
2023-04-24T02:50:37.468Z,3.20
2023-04-24T02:51:42.210Z,3.22
2023-04-24T02:52:44.495Z,3.50
2023-04-24T02:53:46.822Z,3.67
2023-04-24T02:54:49.068Z,3.67
2023-04-24T02:55:51.323Z,2.92
2023-04-24T02:56:54.951Z,3.42
2023-04-24T02:57:57.239Z,3.35
2023-04-24T02:58:59.437Z,3.25
2023-04-24T03:00:01.696Z,3.22
2023-04-24T03:01:03.919Z,3.38
2023-04-24T03:02:06.825Z,3.38
2023-04-24T03:03:09.294Z,3.40
2023-04-24T03:04:11.908Z,3.75
2023-04-24T03:05:14.290Z,3.25
2023-04-24T03:06:16.622Z,3.50
2023-04-24T03:07:21.826Z,3.65
2023-04-24T03:08:24.098Z,3.53
2023-04-24T03:09:26.334Z,3.47
2023-04-24T03:10:28.563Z,3.40
2023-04-24T03:11:30.790Z,3.65
2023-04-24T03:12:34.443Z,3.35
2023-04-24T03:13:36.850Z,3.55
2023-04-24T03:14:39.044Z,3.53
2023-04-24T03:15:41.308Z,3.22
2023-04-24T03:16:43.479Z,3.33
2023-04-24T03:17:45.707Z,3.30
2023-04-24T03:18:47.889Z,3.42
2023-04-24T03:19:50.077Z,3.65
2023-04-24T03:20:52.412Z,3.15
2023-04-24T03:21:54.638Z,3.95
2023-04-24T03:22:58.167Z,4.55
2023-04-24T03:24:00.286Z,5.25
2023-04-24T03:25:02.856Z,5.50
2023-04-24T03:26:05.280Z,5.40
2023-04-24T03:27:07.981Z,4.97
2023-04-24T03:28:11.827Z,4.68
2023-04-24T03:29:14.260Z,4.63
2023-04-24T03:30:16.488Z,4.75
2023-04-24T03:31:20.159Z,3.75
2023-04-24T03:32:23.526Z,3.80
2023-04-24T03:33:25.920Z,4.05
2023-04-24T03:34:28.086Z,3.28
2023-04-24T03:35:30.324Z,3.90
2023-04-24T03:36:32.666Z,3.80
2023-04-24T03:37:34.902Z,3.60
2023-04-24T03:38:37.083Z,3.75
2023-04-24T03:39:39.219Z,3.28
2023-04-24T03:40:41.425Z,3.45
2023-04-24T03:41:43.641Z,3.67
2023-04-24T03:42:45.796Z,3.50
2023-04-24T03:43:49.553Z,3.47
2023-04-24T03:44:51.744Z,3.50
2023-04-24T03:45:54.026Z,3.88
2023-04-24T03:46:56.348Z,3.80
2023-04-24T03:47:58.613Z,3.50
2023-04-24T03:49:01.467Z,3.30
2023-04-24T03:50:04.167Z,3.38
2023-04-24T03:51:06.466Z,3.60
2023-04-24T03:52:08.703Z,3.30
2023-04-24T03:53:11.282Z,3.63
2023-04-24T03:54:13.554Z,3.70
2023-04-24T03:55:15.879Z,3.72
2023-04-24T03:56:18.058Z,3.17
2023-04-24T03:57:20.372Z,3.30
2023-04-24T03:58:22.761Z,3.20
2023-04-24T03:59:26.397Z,3.50
2023-04-24T04:00:28.930Z,3.45
2023-04-24T04:01:31.900Z,3.40
2023-04-24T04:02:34.309Z,3.53
2023-04-24T04:03:36.848Z,3.65
2023-04-24T04:04:39.444Z,3.60
2023-04-24T04:05:42.146Z,4.00
2023-04-24T04:06:45.252Z,3.63
2023-04-24T04:07:47.549Z,3.72
2023-04-24T04:08:49.815Z,3.53
2023-04-24T04:09:52.054Z,3.88
2023-04-24T04:10:54.263Z,4.07
2023-04-24T04:11:56.431Z,3.95
2023-04-24T04:12:58.649Z,3.58
2023-04-24T04:14:00.917Z,3.47
2023-04-24T04:15:06.761Z,3.33
2023-04-24T04:16:10.157Z,4.35
2023-04-24T04:17:12.446Z,3.80
2023-04-24T04:18:14.844Z,3.40
2023-04-24T04:19:17.181Z,3.72
2023-04-24T04:20:19.367Z,3.75
2023-04-24T04:21:21.715Z,3.53
2023-04-24T04:22:23.955Z,3.80
2023-04-24T04:23:26.938Z,4.07
2023-04-24T04:24:29.626Z,3.88
2023-04-24T04:25:31.800Z,3.80
2023-04-24T04:26:34.023Z,3.50
2023-04-24T04:27:36.335Z,3.97
2023-04-24T04:28:42.579Z,3.78
2023-04-24T04:29:45.087Z,4.10
2023-04-24T04:30:48.872Z,3.85
2023-04-24T04:31:51.139Z,3.53
2023-04-24T04:32:53.428Z,3.67
2023-04-24T04:33:55.673Z,4.03
2023-04-24T04:34:57.846Z,3.92
2023-04-24T04:36:01.845Z,3.47
2023-04-24T04:37:05.413Z,3.75
2023-04-24T04:38:09.443Z,4.38
2023-04-24T04:39:11.614Z,3.97
2023-04-24T04:40:13.815Z,3.90
2023-04-24T04:41:17.916Z,4.40
2023-04-24T04:42:20.141Z,3.78
2023-04-24T04:43:22.460Z,3.63
2023-04-24T04:44:24.689Z,3.60
2023-04-24T04:45:28.703Z,3.80
2023-04-24T04:46:34.281Z,3.67
2023-04-24T04:47:36.681Z,3.90
2023-04-24T04:48:39.137Z,3.90
2023-04-24T04:49:42.435Z,4.13
2023-04-24T04:50:44.886Z,3.78
2023-04-24T04:51:48.116Z,3.92
2023-04-24T04:52:50.504Z,3.78
2023-04-24T04:53:52.804Z,3.70
2023-04-24T04:54:54.999Z,3.80
2023-04-24T04:55:57.417Z,3.85
2023-04-24T04:57:00.070Z,3.80
2023-04-24T04:58:02.251Z,3.83
2023-04-24T04:59:04.381Z,3.78
2023-04-24T05:00:08.545Z,4.25
2023-04-24T05:01:11.262Z,5.18
2023-04-24T05:02:17.466Z,3.97
2023-04-24T05:03:21.586Z,4.00
2023-04-24T05:04:24.248Z,3.92
2023-04-24T05:05:26.541Z,3.67
2023-04-24T05:06:28.736Z,3.60
2023-04-24T05:07:30.931Z,4.05
2023-04-24T05:08:33.148Z,4.43
2023-04-24T05:09:35.363Z,3.65
2023-04-24T05:10:38.026Z,4.22
2023-04-24T05:11:40.213Z,4.10
2023-04-24T05:12:44.211Z,3.55
2023-04-24T05:13:47.899Z,3.88
2023-04-24T05:14:50.145Z,3.80
2023-04-24T05:15:52.589Z,3.60
2023-04-24T05:16:54.812Z,3.75
2023-04-24T05:17:58.623Z,3.67
2023-04-24T05:19:01.097Z,4.65
2023-04-24T05:20:06.375Z,4.13
2023-04-24T05:21:08.685Z,4.10
2023-04-24T05:22:11.501Z,4.10
2023-04-24T05:23:14.130Z,4.05
2023-04-24T05:24:16.396Z,4.13
2023-04-24T05:25:18.649Z,4.10
2023-04-24T05:26:20.833Z,4.05
2023-04-24T05:27:23.023Z,4.35
2023-04-24T05:28:29.405Z,4.05
2023-04-24T05:29:32.719Z,4.00
2023-04-24T05:30:35.017Z,4.38
2023-04-24T05:31:37.214Z,4.15
2023-04-24T05:32:39.534Z,4.50
2023-04-24T05:33:43.360Z,5.03
2023-04-24T05:34:45.556Z,4.63
2023-04-24T05:35:47.950Z,4.25
2023-04-24T05:36:51.708Z,4.00
2023-04-24T05:37:53.938Z,4.03
2023-04-24T05:38:56.604Z,4.45
2023-04-24T05:39:58.905Z,4.15
2023-04-24T05:41:01.445Z,3.90
2023-04-24T05:42:05.545Z,4.05
2023-04-24T05:43:07.745Z,4.28
2023-04-24T05:44:10.017Z,4.80
2023-04-24T05:45:17.451Z,4.57
2023-04-24T05:46:20.101Z,4.35
2023-04-24T05:47:23.147Z,4.35
2023-04-24T05:48:25.563Z,4.15
2023-04-24T05:49:29.187Z,3.83
2023-04-24T05:50:31.400Z,4.70
2023-04-24T05:51:33.588Z,4.28
2023-04-24T05:52:35.838Z,4.72
2023-04-24T05:53:38.077Z,4.20
2023-04-24T05:54:40.368Z,4.43
2023-04-24T05:55:42.829Z,4.00
2023-04-24T05:56:45.123Z,3.63
2023-04-24T05:57:48.292Z,4.32
2023-04-24T05:58:56.577Z,4.32
2023-04-24T05:59:59.347Z,4.28
2023-04-24T06:01:12.496Z,4.22
2023-04-24T06:02:22.424Z,4.30
2023-04-24T06:03:25.145Z,4.40
2023-04-24T06:04:35.558Z,4.10
2023-04-24T06:05:49.430Z,4.55
2023-04-24T06:07:00.262Z,4.07
2023-04-24T06:08:08.501Z,5.13
2023-04-24T06:09:16.473Z,4.50
2023-04-24T06:10:23.136Z,4.38
2023-04-24T06:11:30.491Z,4.85
2023-04-24T06:12:36.017Z,4.68
2023-04-24T06:13:50.979Z,4.95
2023-04-24T06:15:13.335Z,4.50
2023-04-24T06:16:31.926Z,4.60
2023-04-24T06:17:41.072Z,4.88
2023-04-24T06:18:57.158Z,4.43
2023-04-24T06:21:42.177Z,4.60
2023-04-24T06:23:10.553Z,4.70
2023-04-24T06:24:23.208Z,5.05
2023-04-24T06:25:43.372Z,5.25
2023-04-24T06:26:52.154Z,5.28
2023-04-24T06:28:00.262Z,4.55
2023-04-24T06:29:10.924Z,4.57
2023-04-24T06:30:34.966Z,5.15
2023-04-24T06:31:47.843Z,4.65
2023-04-24T06:33:22.318Z,4.53
2023-04-24T06:34:32.576Z,5.15
2023-04-24T06:36:50.348Z,4.63
2023-04-24T06:38:01.955Z,4.65
2023-04-24T06:39:07.338Z,4.93
2023-04-24T06:40:18.300Z,4.85
2023-04-24T06:44:29.606Z,5.00
2023-04-24T06:45:37.728Z,4.78
2023-04-24T06:46:54.037Z,4.95
2023-04-24T06:48:08.250Z,4.45
2023-04-24T06:51:01.245Z,5.85
2023-04-24T06:52:50.354Z,5.03
2023-04-24T06:54:03.115Z,5.05
2023-04-24T06:55:16.665Z,5.20
2023-04-24T06:56:35.046Z,6.20
2023-04-24T06:57:45.944Z,5.72
2023-04-24T06:59:10.477Z,5.30
2023-04-24T07:00:28.354Z,5.85
2023-04-24T07:05:41.917Z,6.10
2023-04-24T07:06:47.411Z,5.38
2023-04-24T07:08:05.081Z,5.70
2023-04-24T07:09:20.021Z,5.65
2023-04-24T07:10:44.785Z,5.55
2023-04-24T07:12:14.867Z,4.68
2023-04-24T07:13:50.632Z,4.97
2023-04-24T07:15:11.778Z,4.70
2023-04-24T07:16:31.221Z,5.15
2023-04-24T07:19:24.610Z,5.43
2023-04-24T07:20:29.600Z,5.32
2023-04-24T07:21:56.320Z,5.93
2023-04-24T07:23:15.949Z,5.00
2023-04-24T07:24:26.818Z,4.93
2023-04-24T07:25:42.167Z,5.60
2023-04-24T07:26:50.463Z,4.90
2023-04-24T07:28:04.160Z,5.47
2023-04-24T07:29:16.977Z,5.25
2023-04-24T07:30:25.300Z,5.25
2023-04-24T07:31:38.041Z,5.35
2023-04-24T07:32:40.342Z,5.47
2023-04-24T07:33:42.753Z,5.50
2023-04-24T07:34:44.906Z,5.70
2023-04-24T07:35:47.576Z,5.65
2023-04-24T07:36:51.333Z,5.25
2023-04-24T07:37:54.361Z,5.25
2023-04-24T07:38:57.728Z,5.30
2023-04-24T07:39:59.861Z,5.50
2023-04-24T07:41:02.187Z,5.50
2023-04-24T07:42:04.544Z,6.05
2023-04-24T07:43:06.709Z,6.03
2023-04-24T07:44:09.128Z,5.32
2023-04-24T07:45:11.304Z,4.88
2023-04-24T07:46:13.490Z,5.50
2023-04-24T07:47:18.459Z,5.43
2023-04-24T07:48:22.527Z,6.22
2023-04-24T07:49:24.751Z,5.07
2023-04-24T07:50:26.996Z,5.22
2023-04-24T07:51:29.282Z,5.57
2023-04-24T07:52:32.843Z,4.90
2023-04-24T07:53:35.021Z,5.53
2023-04-24T07:54:38.621Z,5.13
2023-04-24T07:55:40.838Z,6.00
2023-04-24T07:56:44.284Z,5.68
2023-04-24T07:57:46.488Z,5.47
2023-04-24T07:58:48.635Z,6.45
2023-04-24T07:59:50.881Z,5.50
2023-04-24T08:00:52.989Z,5.13
2023-04-24T08:01:55.523Z,5.20
2023-04-24T08:02:58.021Z,5.45
2023-04-24T08:04:01.073Z,5.30
2023-04-24T08:05:04.726Z,5.55
2023-04-24T08:06:07.366Z,5.32
2023-04-24T08:07:09.617Z,5.55
2023-04-24T08:08:13.138Z,5.57
2023-04-24T08:09:15.390Z,5.90
2023-04-24T08:10:17.568Z,5.22
2023-04-24T08:11:19.698Z,5.18
2023-04-24T08:12:21.817Z,5.50
2023-04-24T08:13:24.224Z,5.05
2023-04-24T08:14:26.376Z,6.70
2023-04-24T08:15:29.104Z,6.53
2023-04-24T08:16:31.571Z,6.82
2023-04-24T08:17:34.471Z,5.50
2023-04-24T08:18:37.099Z,5.80
2023-04-24T08:19:43.778Z,5.88
2023-04-24T08:20:46.791Z,6.43
2023-04-24T08:21:48.946Z,5.97
2023-04-24T08:22:51.109Z,6.75
2023-04-24T08:23:54.598Z,5.60
2023-04-24T08:24:58.049Z,5.97
2023-04-24T08:26:00.204Z,5.57
2023-04-24T08:27:02.425Z,5.45
2023-04-24T08:28:06.796Z,5.28
2023-04-24T08:29:09.070Z,5.85
2023-04-24T08:30:11.939Z,5.68
2023-04-24T08:31:14.171Z,5.35
2023-04-24T08:32:16.392Z,5.43
2023-04-24T08:33:18.480Z,6.00
2023-04-24T08:34:21.029Z,5.55
2023-04-24T08:35:24.005Z,6.20
2023-04-24T08:36:36.049Z,6.25
2023-04-24T08:37:46.260Z,5.50
2023-04-24T08:38:48.580Z,5.65
2023-04-24T08:39:52.321Z,6.13
2023-04-24T08:40:54.672Z,6.38
2023-04-24T08:41:57.083Z,5.53
2023-04-24T08:43:00.406Z,5.68
2023-04-24T08:44:03.565Z,5.43
2023-04-24T08:45:07.333Z,5.55
2023-04-24T08:46:12.354Z,6.07
2023-04-24T08:47:16.420Z,6.03
2023-04-24T08:48:29.596Z,5.45
2023-04-24T08:49:33.143Z,6.30
2023-04-24T08:50:36.016Z,5.35
2023-04-24T08:51:39.046Z,5.75
2023-04-24T08:52:42.883Z,6.20
2023-04-24T08:53:46.397Z,6.03
2023-04-24T08:55:19.046Z,6.00
2023-04-24T08:56:24.582Z,6.63
2023-04-24T08:57:27.988Z,6.03
2023-04-24T08:58:31.766Z,5.88
2023-04-24T08:59:35.129Z,6.10
2023-04-24T09:00:39.835Z,6.65
2023-04-24T09:01:42.651Z,6.22
2023-04-24T09:02:46.578Z,6.57
2023-04-24T09:03:50.969Z,6.10
2023-04-24T09:04:55.197Z,6.28
2023-04-24T09:05:59.385Z,5.88
2023-04-24T09:07:01.969Z,6.10
2023-04-24T09:08:06.302Z,6.05
2023-04-24T09:09:09.533Z,6.13
2023-04-24T09:10:13.928Z,6.03
2023-04-24T09:11:16.549Z,6.20
2023-04-24T09:12:19.039Z,5.90
2023-04-24T09:13:21.655Z,6.72
2023-04-24T09:14:24.869Z,5.88
2023-04-24T09:15:27.771Z,5.85
2023-04-24T09:16:30.884Z,5.80
2023-04-24T09:17:34.399Z,6.38
2023-04-24T09:18:36.682Z,6.60
2023-04-24T09:19:39.048Z,6.55
2023-04-24T09:20:59.530Z,6.70
2023-04-24T09:22:06.288Z,6.40
2023-04-24T09:23:11.232Z,6.43
2023-04-24T09:24:18.907Z,6.45
2023-04-24T09:25:22.754Z,6.20
2023-04-24T09:26:25.360Z,5.97
2023-04-24T09:27:30.077Z,6.32
2023-04-24T09:28:36.065Z,6.22
2023-04-24T09:29:38.281Z,6.45
2023-04-24T09:30:40.533Z,6.35
2023-04-24T09:31:42.842Z,6.05
2023-04-24T09:32:45.495Z,6.20
2023-04-24T09:33:57.736Z,6.25
2023-04-24T09:35:09.682Z,6.30
2023-04-24T09:36:11.890Z,6.40
2023-04-24T09:37:29.025Z,5.78
2023-04-24T09:38:35.592Z,6.50
2023-04-24T09:39:37.880Z,6.13
2023-04-24T09:40:44.280Z,6.28
2023-04-24T09:41:48.082Z,6.20
2023-04-24T09:42:54.945Z,5.82
2023-04-24T09:43:57.785Z,6.20
2023-04-24T09:45:11.822Z,6.00
2023-04-24T09:46:20.059Z,5.55
2023-04-24T09:47:22.400Z,5.70
2023-04-24T09:48:32.829Z,6.07
2023-04-24T09:49:36.076Z,6.00
2023-04-24T09:50:40.947Z,5.90
2023-04-24T09:51:43.873Z,6.63
2023-04-24T09:52:47.431Z,6.32
2023-04-24T09:53:54.019Z,6.20
2023-04-24T09:54:57.106Z,5.97
2023-04-24T09:56:09.314Z,5.82
2023-04-24T09:57:11.708Z,6.32
2023-04-24T09:58:14.028Z,6.57
2023-04-24T09:59:17.529Z,6.47
2023-04-24T10:00:22.987Z,7.38
2023-04-24T10:01:32.081Z,6.50
2023-04-24T10:02:34.560Z,6.78
2023-04-24T10:03:37.256Z,5.88
2023-04-24T10:04:39.701Z,6.05
2023-04-24T10:05:42.125Z,6.47
2023-04-24T10:06:45.274Z,6.57
2023-04-24T10:07:49.566Z,6.22
2023-04-24T10:08:52.495Z,6.55
2023-04-24T10:09:55.303Z,6.18
2023-04-24T10:11:01.338Z,6.60
2023-04-24T10:12:05.743Z,6.93
2023-04-24T10:13:09.001Z,6.03
2023-04-24T10:14:13.154Z,6.60
2023-04-24T10:15:16.536Z,6.53
2023-04-24T10:16:19.715Z,6.03
2023-04-24T10:17:23.011Z,6.30
2023-04-24T10:18:26.342Z,6.90
2023-04-24T10:19:30.700Z,6.35
2023-04-24T10:20:33.423Z,6.22
2023-04-24T10:21:36.708Z,6.00
2023-04-24T10:22:39.241Z,5.78
2023-04-24T10:23:42.743Z,5.80
2023-04-24T10:24:46.356Z,5.90
2023-04-24T10:25:50.733Z,5.97
2023-04-24T10:26:53.515Z,5.93
2023-04-24T10:28:00.972Z,6.05
2023-04-24T10:29:03.452Z,6.10
2023-04-24T10:30:08.084Z,6.68
2023-04-24T10:31:11.630Z,6.07
2023-04-24T10:32:13.843Z,6.35
2023-04-24T10:33:17.071Z,6.45
2023-04-24T10:34:21.878Z,6.60
2023-04-24T10:35:27.826Z,6.13
2023-04-24T10:36:33.933Z,6.93
2023-04-24T10:37:39.265Z,6.80
2023-04-24T10:38:44.600Z,6.80
2023-04-24T10:39:49.527Z,6.22
2023-04-24T10:40:51.685Z,6.15
2023-04-24T10:41:57.579Z,6.03
2023-04-24T10:43:03.188Z,6.47
2023-04-24T10:44:08.599Z,6.47
2023-04-24T10:45:19.103Z,6.07
2023-04-24T10:46:22.722Z,6.43
2023-04-24T10:47:26.254Z,6.07
2023-04-24T10:48:28.627Z,5.72
2023-04-24T10:49:31.648Z,5.38
2023-04-24T10:50:44.946Z,5.72
2023-04-24T10:51:49.344Z,5.55
2023-04-24T10:52:53.701Z,6.13
2023-04-24T10:53:59.012Z,6.45
2023-04-24T10:55:03.159Z,6.45
2023-04-24T10:56:06.833Z,6.07
2023-04-24T10:57:31.032Z,6.28
2023-04-24T10:58:44.273Z,6.45
2023-04-24T10:59:47.069Z,5.85
2023-04-24T11:00:58.339Z,5.57
2023-04-24T11:02:00.550Z,5.85
2023-04-24T11:03:05.506Z,6.60
2023-04-24T11:04:07.918Z,6.00
2023-04-24T11:05:12.017Z,5.85
2023-04-24T11:06:15.125Z,6.47
2023-04-24T11:07:17.326Z,6.25
2023-04-24T11:08:33.741Z,6.57
2023-04-24T11:09:37.478Z,6.60
2023-04-24T11:10:41.355Z,6.43
2023-04-24T11:11:47.344Z,5.97
2023-04-24T11:12:51.830Z,6.10
2023-04-24T11:14:07.635Z,5.68
2023-04-24T11:15:11.952Z,5.90
2023-04-24T11:16:16.171Z,6.15
2023-04-24T11:17:33.073Z,5.93
2023-04-24T11:18:46.341Z,5.82
2023-04-24T11:19:53.566Z,5.75
2023-04-24T11:20:56.720Z,6.03
2023-04-24T11:22:02.476Z,7.22
2023-04-24T11:23:07.733Z,8.20
2023-04-24T11:24:31.773Z,7.63
2023-04-24T11:25:34.166Z,7.40
2023-04-24T11:26:40.082Z,7.25
2023-04-24T11:27:43.685Z,6.32
2023-04-24T11:28:47.292Z,7.75
2023-04-24T11:30:01.897Z,7.82
2023-04-24T11:31:40.723Z,6.70
2023-04-24T11:32:44.078Z,6.68
2023-04-24T11:33:46.403Z,6.15
2023-04-24T11:34:49.778Z,6.03
2023-04-24T11:35:55.181Z,5.85
2023-04-24T11:37:00.547Z,6.40
2023-04-24T11:38:19.372Z,6.10
2023-04-24T11:39:26.812Z,6.28
2023-04-24T11:40:29.212Z,7.15
2023-04-24T11:41:31.783Z,6.47
2023-04-24T11:42:37.500Z,5.80
2023-04-24T11:43:41.693Z,6.82
2023-04-24T11:44:44.925Z,5.93
2023-04-24T11:45:51.358Z,6.32
2023-04-24T11:46:53.778Z,6.10
2023-04-24T11:47:56.018Z,6.00
2023-04-24T11:48:59.121Z,5.78
2023-04-24T11:50:03.391Z,5.97
2023-04-24T11:51:05.873Z,5.82
2023-04-24T11:52:08.356Z,5.10
2023-04-24T11:53:11.108Z,5.40
2023-04-24T11:54:13.454Z,5.35
2023-04-24T11:55:29.907Z,5.80
2023-04-24T11:56:32.306Z,7.20
2023-04-24T11:57:35.570Z,6.60
2023-04-24T11:58:40.733Z,6.03
2023-04-24T11:59:43.725Z,6.38
2023-04-24T12:00:46.803Z,6.47
2023-04-24T12:01:51.417Z,6.22
2023-04-24T12:03:07.655Z,6.75
2023-04-24T12:04:10.301Z,6.38
2023-04-24T12:05:21.334Z,6.53
2023-04-24T12:06:23.737Z,6.28
2023-04-24T12:07:26.214Z,5.82
2023-04-24T12:08:29.681Z,6.30
2023-04-24T12:09:42.875Z,5.97
2023-04-24T12:10:45.018Z,6.25
2023-04-24T12:11:55.624Z,6.28
2023-04-24T12:13:00.707Z,6.35
2023-04-24T12:14:11.982Z,5.50
2023-04-24T12:15:14.124Z,6.75
2023-04-24T12:16:16.484Z,6.63
2023-04-24T12:17:27.880Z,6.15
2023-04-24T12:18:31.133Z,5.88
2023-04-24T12:19:33.219Z,6.10
2023-04-24T12:20:37.167Z,6.18
2023-04-24T12:21:39.269Z,5.88
2023-04-24T12:22:46.803Z,6.40
2023-04-24T12:23:49.465Z,6.18
2023-04-24T12:24:59.778Z,5.82
2023-04-24T12:26:02.644Z,6.40
2023-04-24T12:27:05.043Z,6.50
2023-04-24T12:28:12.232Z,6.20
2023-04-24T12:29:21.688Z,6.25
2023-04-24T12:30:32.549Z,6.25
2023-04-24T12:31:34.790Z,7.75
2023-04-24T12:32:42.805Z,7.88
2023-04-24T12:33:45.462Z,7.82
2023-04-24T12:34:48.338Z,7.50
2023-04-24T12:35:56.571Z,7.80
2023-04-24T12:37:11.258Z,8.45
2023-04-24T12:38:16.677Z,8.10
2023-04-24T12:39:20.516Z,8.13
2023-04-24T12:40:26.332Z,8.18
2023-04-24T12:41:31.675Z,8.00
2023-04-24T12:42:34.272Z,8.52
2023-04-24T12:43:37.058Z,7.93
2023-04-24T12:44:39.226Z,8.25
2023-04-24T12:45:41.410Z,7.07
2023-04-24T12:46:44.655Z,8.13
2023-04-24T12:47:51.377Z,7.90
2023-04-24T12:48:53.702Z,7.68
2023-04-24T12:49:56.430Z,7.88
2023-04-24T12:51:01.714Z,7.78
2023-04-24T12:52:03.839Z,7.00
2023-04-24T12:53:07.009Z,7.50
2023-04-24T12:54:09.333Z,7.95
2023-04-24T12:55:13.129Z,7.72
2023-04-24T12:56:15.460Z,8.38
2023-04-24T12:57:17.968Z,7.57
2023-04-24T12:58:21.184Z,7.85
2023-04-24T12:59:23.592Z,7.63
2023-04-24T13:00:25.824Z,7.32
2023-04-24T13:01:28.364Z,7.80
2023-04-24T13:02:32.392Z,7.90
2023-04-24T13:03:36.667Z,7.03
2023-04-24T13:04:39.221Z,7.55
2023-04-24T13:05:41.764Z,7.75
2023-04-24T13:06:44.118Z,7.53
2023-04-24T13:07:46.412Z,7.75
2023-04-24T13:08:49.558Z,7.35
2023-04-24T13:09:56.650Z,7.72
2023-04-24T13:10:58.960Z,7.55
2023-04-24T13:12:04.389Z,7.32
2023-04-24T13:13:06.734Z,7.13
2023-04-24T13:14:09.205Z,7.47
2023-04-24T13:15:11.896Z,6.80
2023-04-24T13:16:16.451Z,6.93
2023-04-24T13:17:19.175Z,7.05
2023-04-24T13:18:21.914Z,7.20
2023-04-24T13:19:27.979Z,7.60
2023-04-24T13:20:30.410Z,6.78
2023-04-24T13:21:32.986Z,7.25
2023-04-24T13:22:35.364Z,7.25
2023-04-24T13:23:40.829Z,7.38
2023-04-24T13:24:43.378Z,6.95
2023-04-24T13:25:45.573Z,6.88
2023-04-24T13:26:48.092Z,7.63
2023-04-24T13:27:50.462Z,6.75
2023-04-24T13:28:52.686Z,6.97
2023-04-24T13:29:54.941Z,7.10
2023-04-24T13:30:57.215Z,6.60
2023-04-24T13:32:01.788Z,6.72
2023-04-24T13:33:04.404Z,6.65
2023-04-24T13:34:06.930Z,6.47
2023-04-24T13:35:11.179Z,6.30
2023-04-24T13:36:13.422Z,6.95
2023-04-24T13:37:15.629Z,6.65
2023-04-24T13:38:17.825Z,9.10
2023-04-24T13:39:19.952Z,9.30
2023-04-24T13:40:22.230Z,9.73
2023-04-24T13:41:24.455Z,9.50
2023-04-24T13:42:26.665Z,9.80
2023-04-24T13:43:28.853Z,10.02
2023-04-24T13:44:31.050Z,10.38
2023-04-24T13:45:33.227Z,9.30
2023-04-24T13:46:35.877Z,9.15
2023-04-24T13:47:38.299Z,10.98
2023-04-24T13:48:40.711Z,10.38
2023-04-24T13:49:42.986Z,9.25
2023-04-24T13:50:49.626Z,10.93
2023-04-24T13:51:52.111Z,11.57
2023-04-24T13:52:55.248Z,10.60
2023-04-24T13:53:57.502Z,11.20
2023-04-24T13:54:59.652Z,11.60
2023-04-24T13:56:06.869Z,11.82
2023-04-24T13:57:09.211Z,10.95
2023-04-24T13:58:11.595Z,11.45
2023-04-24T13:59:14.448Z,10.07
2023-04-24T14:00:17.653Z,11.38
2023-04-24T14:01:19.905Z,11.55
2023-04-24T14:02:22.096Z,11.75
2023-04-24T14:03:24.386Z,11.32
2023-04-24T14:04:26.901Z,11.77
2023-04-24T14:05:29.192Z,11.40
2023-04-24T14:06:33.145Z,11.85
2023-04-24T14:07:35.348Z,11.75
2023-04-24T14:08:37.451Z,10.77
2023-04-24T14:09:39.643Z,10.65
2023-04-24T14:10:41.934Z,10.82
2023-04-24T14:11:44.202Z,10.57
2023-04-24T14:12:46.470Z,11.15
2023-04-24T14:13:49.104Z,10.73
2023-04-24T14:14:51.389Z,9.80
2023-04-24T14:15:56.069Z,10.45
2023-04-24T14:16:58.591Z,10.57
2023-04-24T14:18:00.907Z,8.93
2023-04-24T14:19:03.249Z,9.88
2023-04-24T14:20:07.993Z,9.43
2023-04-24T14:21:10.197Z,9.65
2023-04-24T14:22:13.722Z,10.02
2023-04-24T14:23:18.413Z,9.30
2023-04-24T14:24:22.286Z,9.10
2023-04-24T14:25:24.617Z,9.23
2023-04-24T14:26:26.883Z,9.43
2023-04-24T14:27:29.095Z,9.35
2023-04-24T14:28:31.473Z,10.05
2023-04-24T14:29:35.284Z,8.90
2023-04-24T14:30:41.713Z,9.30
2023-04-24T14:31:44.101Z,8.80
2023-04-24T14:32:46.484Z,8.65